createdAt,value
2022-11-17T05:02:34.955Z,10.47
2022-11-17T05:05:01.529Z,10.53
2022-11-17T05:07:28.326Z,10.47
2022-11-17T05:09:54.939Z,10.49
2022-11-17T05:12:40.156Z,10.55
2022-11-17T05:15:07.182Z,10.57
2022-11-17T05:17:33.681Z,10.56
2022-11-17T05:20:01.240Z,10.55
2022-11-17T05:22:46.502Z,10.57
2022-11-17T05:25:51.950Z,10.64
2022-11-17T05:28:19.230Z,10.66
2022-11-17T05:30:45.770Z,10.64
2022-11-17T05:33:12.766Z,10.73
2022-11-17T05:35:39.272Z,10.76
2022-11-17T05:38:05.822Z,10.71
2022-11-17T05:40:32.718Z,10.68
2022-11-17T05:42:59.314Z,10.67
2022-11-17T05:45:25.984Z,10.68
2022-11-17T05:47:52.437Z,10.74
2022-11-17T05:50:19.256Z,10.78
2022-11-17T05:52:46.765Z,10.73
2022-11-17T05:55:13.356Z,10.76
2022-11-17T05:57:39.967Z,10.80
2022-11-17T06:00:07.269Z,10.83
2022-11-17T06:02:51.501Z,10.81
2022-11-17T06:05:20.555Z,10.87
2022-11-17T06:07:48.061Z,10.88
2022-11-17T06:10:14.718Z,10.88
2022-11-17T06:12:41.268Z,10.94
2022-11-17T06:15:08.062Z,10.90
2022-11-17T06:17:42.206Z,10.90
2022-11-17T06:20:15.659Z,11.00
2022-11-17T06:22:48.005Z,10.94
2022-11-17T06:25:15.548Z,10.91
2022-11-17T06:27:42.576Z,10.91
2022-11-17T06:30:09.884Z,10.83
2022-11-17T06:32:38.732Z,10.78
2022-11-17T06:35:08.918Z,10.76
2022-11-17T06:37:35.433Z,10.74
2022-11-17T06:40:02.007Z,10.78
2022-11-17T06:42:47.058Z,10.77
2022-11-17T06:45:15.400Z,10.71
2022-11-17T06:47:41.985Z,10.71
2022-11-17T06:50:09.443Z,10.66
2022-11-17T06:52:36.023Z,10.57
2022-11-17T06:55:02.666Z,10.59
2022-11-17T06:57:29.902Z,10.59
2022-11-17T06:59:56.488Z,10.56
2022-11-17T07:02:23.452Z,10.45
2022-11-17T07:04:50.170Z,10.37
2022-11-17T07:07:17.339Z,10.33
2022-11-17T07:09:44.067Z,10.32
2022-11-17T07:12:10.667Z,10.22
2022-11-17T07:14:37.510Z,10.22
2022-11-17T07:17:04.147Z,10.19
2022-11-17T07:19:31.542Z,10.19
2022-11-17T07:21:58.122Z,10.19
2022-11-17T07:24:24.720Z,10.18
2022-11-17T07:26:54.257Z,10.12
2022-11-17T07:29:20.855Z,10.06
2022-11-17T07:31:47.533Z,10.05
2022-11-17T07:34:14.276Z,10.03
2022-11-17T07:36:40.898Z,10.03
2022-11-17T07:39:07.749Z,9.99
2022-11-17T07:41:34.650Z,9.98
2022-11-17T07:44:03.461Z,9.98
2022-11-17T07:46:30.006Z,10.01
2022-11-17T07:48:56.646Z,10.02
2022-11-17T07:51:23.884Z,9.99
2022-11-17T07:53:50.445Z,10.03
2022-11-17T07:56:17.094Z,10.12
2022-11-17T07:58:43.968Z,10.10
2022-11-17T08:01:17.436Z,10.13
2022-11-17T08:03:47.360Z,10.08
2022-11-17T08:06:14.746Z,10.15
2022-11-17T08:08:41.441Z,10.10
2022-11-17T08:11:10.522Z,10.08
2022-11-17T08:13:42.888Z,10.03
2022-11-17T08:16:11.074Z,10.12
2022-11-17T08:18:38.494Z,10.08
2022-11-17T08:21:06.773Z,10.12
2022-11-17T08:23:34.164Z,10.05
2022-11-17T08:26:02.209Z,10.05
2022-11-17T08:28:29.190Z,10.06
2022-11-17T08:30:56.044Z,10.05
2022-11-17T08:33:22.759Z,10.12
2022-11-17T08:35:49.342Z,10.26
2022-11-17T08:38:16.261Z,10.28
2022-11-17T08:40:43.961Z,10.28
2022-11-17T08:43:10.671Z,10.30
2022-11-17T08:45:37.247Z,10.20
2022-11-17T08:48:04.359Z,10.23
2022-11-17T08:50:31.100Z,10.20
2022-11-17T08:52:57.731Z,10.22
2022-11-17T08:55:26.656Z,10.33
2022-11-17T08:57:53.372Z,10.22
2022-11-17T09:00:21.864Z,10.28
2022-11-17T09:02:49.405Z,10.23
2022-11-17T09:05:15.925Z,10.23
2022-11-17T09:07:42.587Z,10.28
2022-11-17T09:10:11.207Z,10.18
2022-11-17T09:12:38.373Z,10.18
2022-11-17T09:15:05.925Z,10.16
2022-11-17T09:17:32.434Z,10.16
2022-11-17T09:19:58.956Z,10.19
2022-11-17T09:22:25.535Z,10.12
2022-11-17T09:24:52.090Z,10.10
2022-11-17T09:27:18.648Z,10.08
2022-11-17T09:29:46.110Z,10.05
2022-11-17T09:32:13.574Z,10.03
2022-11-17T09:34:40.136Z,10.05
2022-11-17T09:37:06.884Z,10.02
2022-11-17T09:39:33.449Z,9.95
2022-11-17T09:42:00.027Z,10.01
2022-11-17T09:44:46.884Z,9.97
2022-11-17T09:47:32.208Z,9.97
2022-11-17T09:50:23.388Z,9.95
2022-11-17T09:53:06.868Z,9.95
2022-11-17T09:55:42.510Z,9.99
2022-11-17T09:58:14.848Z,9.94
2022-11-17T10:00:47.532Z,9.89
2022-11-17T10:03:28.758Z,9.92
2022-11-17T10:05:55.562Z,9.87
2022-11-17T10:09:06.798Z,9.82
2022-11-17T10:11:38.773Z,9.88
2022-11-17T10:14:08.082Z,9.94
2022-11-17T10:16:36.719Z,9.92
2022-11-17T10:19:15.923Z,9.95
2022-11-17T10:21:44.970Z,9.99
2022-11-17T10:24:11.629Z,9.98
2022-11-17T10:26:47.376Z,10.05
2022-11-17T10:29:19.355Z,10.08
2022-11-17T10:31:46.441Z,10.09
2022-11-17T10:34:40.629Z,10.08
2022-11-17T10:37:13.576Z,10.10
2022-11-17T10:39:42.305Z,10.15
2022-11-17T10:42:27.861Z,10.12
2022-11-17T10:44:58.478Z,10.12
2022-11-17T10:47:35.869Z,10.06
2022-11-17T10:50:11.439Z,10.20
2022-11-17T10:52:37.989Z,10.22
2022-11-17T10:55:26.188Z,10.19
2022-11-17T10:58:07.242Z,10.13
2022-11-17T11:00:36.446Z,10.16
2022-11-17T11:03:17.310Z,10.16
2022-11-17T11:06:31.916Z,10.20
2022-11-17T11:09:13.535Z,10.35
2022-11-17T11:11:46.694Z,10.45
2022-11-17T11:14:28.580Z,10.42
2022-11-17T11:16:55.387Z,10.42
2022-11-17T11:19:22.152Z,10.43
2022-11-17T11:21:48.832Z,10.47
2022-11-17T11:24:24.895Z,10.42
2022-11-17T11:27:04.607Z,10.43
2022-11-17T11:30:00.958Z,10.45
2022-11-17T11:32:39.718Z,10.42
2022-11-17T11:35:19.942Z,10.49
2022-11-17T11:38:08.948Z,10.43
2022-11-17T11:40:41.172Z,10.42
2022-11-17T11:43:20.367Z,10.40
2022-11-17T11:45:56.338Z,10.37
2022-11-17T11:48:27.767Z,10.37
2022-11-17T11:50:59.226Z,10.33
2022-11-17T11:53:35.367Z,10.37
2022-11-17T11:56:12.664Z,10.32
2022-11-17T11:58:45.404Z,10.26
2022-11-17T12:01:13.236Z,10.29
2022-11-17T12:03:49.143Z,10.23
2022-11-17T12:06:40.924Z,10.29
2022-11-17T12:09:19.732Z,10.35
2022-11-17T12:12:03.358Z,10.30
2022-11-17T12:14:35.623Z,10.32
2022-11-17T12:17:13.770Z,10.36
2022-11-17T12:19:54.357Z,10.32
2022-11-17T12:22:29.635Z,10.33
2022-11-17T12:25:03.566Z,10.33
2022-11-17T12:27:36.274Z,10.36
2022-11-17T12:30:04.693Z,10.33
2022-11-17T12:32:46.529Z,10.36
2022-11-17T12:35:34.757Z,10.39
2022-11-17T12:38:16.978Z,10.33
2022-11-17T12:40:47.961Z,10.30
2022-11-17T12:43:27.106Z,10.30
2022-11-17T12:45:59.889Z,10.32
2022-11-17T12:48:34.488Z,10.30
2022-11-17T12:51:16.238Z,10.33
2022-11-17T12:54:15.899Z,10.37
2022-11-17T12:57:15.351Z,10.40
2022-11-17T13:00:07.884Z,10.37
2022-11-17T13:02:56.107Z,10.36
2022-11-17T13:05:25.791Z,10.40
2022-11-17T13:08:23.100Z,10.39
2022-11-17T13:10:51.282Z,10.36
2022-11-17T13:13:17.906Z,10.37
2022-11-17T13:15:45.417Z,10.46
2022-11-17T13:18:28.098Z,10.39
2022-11-17T13:20:54.861Z,10.50
2022-11-17T13:23:26.072Z,10.53
2022-11-17T13:26:09.246Z,10.63
2022-11-17T13:28:36.180Z,10.73
2022-11-17T13:31:02.785Z,10.78
2022-11-17T13:33:33.274Z,10.84
2022-11-17T13:36:20.490Z,10.85
2022-11-17T13:38:49.191Z,10.90
2022-11-17T13:41:17.885Z,10.90
2022-11-17T13:43:46.248Z,11.00
2022-11-17T13:46:13.120Z,11.03
2022-11-17T13:48:45.238Z,11.04
2022-11-17T13:51:14.588Z,11.01
2022-11-17T13:53:43.755Z,11.04
2022-11-17T13:56:41.452Z,11.11
2022-11-17T13:59:24.807Z,11.15
2022-11-17T14:02:17.091Z,11.12
2022-11-17T14:05:09.058Z,11.19
2022-11-17T14:07:37.775Z,11.18
2022-11-17T14:10:20.223Z,11.18
2022-11-17T14:13:08.792Z,11.25
2022-11-17T14:15:38.810Z,11.25
2022-11-17T14:18:31.499Z,11.26
2022-11-17T14:21:12.671Z,11.26
2022-11-17T14:23:40.107Z,11.36
2022-11-17T14:26:25.177Z,11.34
2022-11-17T14:28:52.844Z,11.38
2022-11-17T14:31:19.891Z,11.45
2022-11-17T14:33:46.789Z,11.42
2022-11-17T14:36:28.185Z,11.40
2022-11-17T14:38:55.019Z,11.45
2022-11-17T14:41:21.733Z,11.45
2022-11-17T14:43:48.503Z,11.53
2022-11-17T14:46:21.551Z,11.49
2022-11-17T14:48:48.246Z,11.49
2022-11-17T14:51:16.272Z,11.40
2022-11-17T14:53:44.670Z,11.49
2022-11-17T14:56:14.505Z,11.38
2022-11-17T14:58:41.136Z,11.43
2022-11-17T15:01:15.851Z,11.35
2022-11-17T15:03:42.768Z,11.42
2022-11-17T15:06:15.229Z,11.38
2022-11-17T15:08:45.207Z,11.35
2022-11-17T15:11:17.502Z,11.34
2022-11-17T15:13:44.188Z,11.34
2022-11-17T15:16:10.907Z,11.26
2022-11-17T15:18:37.654Z,11.24
2022-11-17T15:21:17.796Z,11.26
2022-11-17T15:23:45.007Z,11.18
2022-11-17T15:26:15.388Z,11.14
2022-11-17T15:28:42.434Z,11.25
2022-11-17T15:31:14.410Z,11.14
2022-11-17T15:33:42.793Z,11.14
2022-11-17T15:36:12.529Z,11.08
2022-11-17T15:38:40.396Z,11.12
2022-11-17T15:41:09.463Z,11.07
2022-11-17T15:43:37.969Z,11.10
2022-11-17T15:46:11.018Z,11.07
2022-11-17T15:48:40.084Z,11.01
2022-11-17T15:51:10.105Z,10.98
2022-11-17T15:53:41.519Z,11.00
2022-11-17T15:56:10.460Z,10.98
2022-11-17T15:58:37.566Z,10.94
2022-11-17T16:01:15.753Z,10.95
2022-11-17T16:03:45.392Z,10.90
2022-11-17T16:06:13.060Z,10.95
2022-11-17T16:08:40.843Z,10.95
2022-11-17T16:11:11.024Z,11.03
2022-11-17T16:13:38.008Z,10.87
2022-11-17T16:16:05.284Z,10.87
2022-11-17T16:18:35.905Z,10.95
2022-11-17T16:21:07.807Z,10.84
2022-11-17T16:23:42.475Z,10.91
2022-11-17T16:26:10.658Z,10.87
2022-11-17T16:28:38.285Z,10.80
2022-11-17T16:31:21.864Z,10.80
2022-11-17T16:33:53.970Z,10.93
2022-11-17T16:36:22.470Z,11.01
2022-11-17T16:39:02.136Z,11.10
2022-11-17T16:41:32.332Z,11.05
2022-11-17T16:43:59.250Z,10.94
2022-11-17T16:46:30.631Z,10.93
2022-11-17T16:49:02.275Z,10.90
2022-11-17T16:51:29.255Z,10.97
2022-11-17T16:53:58.572Z,10.91
2022-11-17T16:56:25.700Z,10.94
2022-11-17T16:58:52.359Z,10.91
2022-11-17T17:01:24.779Z,10.91
2022-11-17T17:03:59.547Z,10.88
2022-11-17T17:06:26.761Z,10.94
2022-11-17T17:09:05.198Z,10.87
2022-11-17T17:11:33.715Z,10.94
2022-11-17T17:14:03.383Z,10.85
2022-11-17T17:16:32.071Z,10.80
2022-11-17T17:19:00.571Z,10.78
2022-11-17T17:21:30.947Z,10.74
2022-11-17T17:23:58.269Z,10.71
2022-11-17T17:26:27.435Z,10.74
2022-11-17T17:28:56.749Z,10.76
2022-11-17T17:31:25.463Z,10.78
2022-11-17T17:33:54.376Z,10.78
2022-11-17T17:36:23.376Z,10.80
2022-11-17T17:38:55.465Z,10.76
2022-11-17T17:41:25.545Z,10.80
2022-11-17T17:43:57.728Z,10.76
2022-11-17T17:46:25.102Z,10.78
2022-11-17T17:48:52.269Z,10.68
2022-11-17T17:51:21.030Z,10.60
2022-11-17T17:53:51.031Z,10.63
2022-11-17T17:56:19.618Z,10.61
2022-11-17T17:58:48.829Z,10.63
2022-11-17T18:01:21.058Z,10.61
2022-11-17T18:03:49.698Z,10.55
2022-11-17T18:06:19.149Z,10.47
2022-11-17T18:08:45.904Z,10.42
2022-11-17T18:11:17.164Z,10.47
2022-11-17T18:13:46.953Z,10.42
2022-11-17T18:16:19.964Z,10.37
2022-11-17T18:18:46.984Z,10.40
2022-11-17T18:21:16.613Z,10.43
2022-11-17T18:23:43.738Z,10.40
2022-11-17T18:26:11.576Z,10.36
2022-11-17T18:28:39.581Z,10.33
2022-11-17T18:31:08.072Z,10.35
2022-11-17T18:33:35.346Z,10.46
2022-11-17T18:36:08.711Z,10.43
2022-11-17T18:38:36.809Z,10.49
2022-11-17T18:41:09.085Z,10.45
2022-11-17T18:43:37.090Z,10.40
2022-11-17T18:46:08.533Z,10.43
2022-11-17T18:48:38.319Z,10.35
2022-11-17T18:51:19.519Z,10.26
2022-11-17T18:53:48.022Z,10.28
2022-11-17T18:56:16.211Z,10.23
2022-11-17T18:58:44.062Z,10.19
2022-11-17T19:01:22.887Z,10.23
2022-11-17T19:03:52.326Z,10.16
2022-11-17T19:06:20.216Z,10.28
2022-11-17T19:08:48.233Z,10.20
2022-11-17T19:11:17.593Z,10.18
2022-11-17T19:13:45.009Z,10.13
2022-11-17T19:16:15.575Z,10.15
2022-11-17T19:18:43.584Z,10.09
2022-11-17T19:21:12.633Z,10.13
2022-11-17T19:23:41.794Z,10.03
2022-11-17T19:26:14.813Z,10.02
2022-11-17T19:28:42.281Z,10.01
2022-11-17T19:31:11.467Z,9.97
2022-11-17T19:33:39.743Z,9.92
2022-11-17T19:36:12.076Z,9.98
2022-11-17T19:38:39.356Z,9.95
2022-11-17T19:41:08.329Z,10.01
2022-11-17T19:43:40.273Z,10.01
2022-11-17T19:46:12.073Z,9.99
2022-11-17T19:48:39.887Z,9.91
2022-11-17T19:51:18.431Z,9.87
2022-11-17T19:53:45.142Z,9.91
2022-11-17T19:56:12.014Z,9.87
2022-11-17T19:58:38.684Z,9.92
2022-11-17T20:01:19.815Z,9.97
2022-11-17T20:03:46.954Z,9.97
2022-11-17T20:06:18.914Z,9.98
2022-11-17T20:08:46.893Z,9.98
2022-11-17T20:11:17.786Z,9.99
2022-11-17T20:13:45.062Z,9.97
2022-11-17T20:16:14.637Z,9.84
2022-11-17T20:18:42.836Z,9.85
2022-11-17T20:21:14.122Z,9.91
2022-11-17T20:23:43.613Z,9.84
2022-11-17T20:26:18.986Z,9.79
2022-11-17T20:28:46.566Z,9.92
2022-11-17T20:31:17.388Z,9.87
2022-11-17T20:33:44.051Z,9.75
2022-11-17T20:36:18.997Z,9.75
2022-11-17T20:38:49.545Z,9.79
2022-11-17T20:41:17.124Z,9.67
2022-11-17T20:43:48.544Z,9.68
2022-11-17T20:46:15.126Z,9.55
2022-11-17T20:48:41.965Z,9.64
2022-11-17T20:51:13.661Z,9.55
2022-11-17T20:53:40.817Z,9.48
2022-11-17T20:56:09.533Z,9.40
2022-11-17T20:58:36.628Z,9.44
2022-11-17T21:01:11.503Z,9.37
2022-11-17T21:03:38.275Z,9.36
2022-11-17T21:06:05.336Z,9.43
2022-11-17T21:08:36.440Z,9.40
2022-11-17T21:11:05.836Z,9.41
2022-11-17T21:13:33.966Z,9.33
2022-11-17T21:16:04.690Z,9.30
2022-11-17T21:18:31.679Z,9.16
2022-11-17T21:21:02.909Z,9.27
2022-11-17T21:23:29.430Z,9.15
2022-11-17T21:25:55.995Z,9.08
2022-11-17T21:28:22.791Z,8.96
2022-11-17T21:30:49.341Z,8.83
2022-11-17T21:33:15.927Z,8.78
2022-11-17T21:35:42.506Z,8.76
2022-11-17T21:38:10.747Z,8.75
2022-11-17T21:40:37.306Z,8.78
2022-11-17T21:43:04.015Z,8.79
2022-11-17T21:45:32.675Z,8.83
2022-11-17T21:47:59.651Z,8.72
2022-11-17T21:50:26.315Z,8.76
2022-11-17T21:52:52.871Z,8.75
2022-11-17T21:55:19.415Z,8.82
2022-11-17T21:57:49.480Z,8.71
2022-11-17T22:00:16.556Z,8.62
2022-11-17T22:02:43.788Z,8.61
2022-11-17T22:05:11.520Z,8.60
2022-11-17T22:07:38.119Z,8.62
2022-11-17T22:10:05.183Z,8.58
2022-11-17T22:12:34.083Z,8.52
2022-11-17T22:15:00.696Z,8.47
2022-11-17T22:17:27.246Z,8.50
2022-11-17T22:19:53.888Z,8.43
2022-11-17T22:22:20.367Z,8.45
2022-11-17T22:24:49.833Z,8.48
2022-11-17T22:27:16.684Z,8.45
2022-11-17T22:29:43.262Z,8.50
2022-11-17T22:32:10.755Z,8.40
2022-11-17T22:34:37.357Z,8.51
2022-11-17T22:37:04.074Z,8.40
2022-11-17T22:39:30.686Z,8.38
2022-11-17T22:41:57.206Z,8.50
2022-11-17T22:44:23.783Z,8.55
2022-11-17T22:46:50.427Z,8.47
2022-11-17T22:49:17.122Z,8.40
2022-11-17T22:52:02.551Z,8.33
2022-11-17T22:54:30.405Z,8.24
2022-11-17T22:56:58.115Z,8.24
2022-11-17T22:59:26.136Z,8.24
